createdAt,value
2023-03-24T00:01:44.909Z,1.80
2023-03-24T00:04:12.128Z,1.90
2023-03-24T00:06:40.695Z,1.80
2023-03-24T00:09:07.902Z,1.80
2023-03-24T00:11:35.558Z,1.67
2023-03-24T00:14:02.784Z,2.05
2023-03-24T00:16:30.052Z,1.50
2023-03-24T00:18:57.741Z,1.60
2023-03-24T00:21:25.358Z,1.67
2023-03-24T00:23:55.222Z,1.60
2023-03-24T00:26:22.466Z,1.67
2023-03-24T00:28:49.710Z,1.85
2023-03-24T00:31:17.244Z,1.60
2023-03-24T00:33:44.866Z,1.67
2023-03-24T00:36:12.644Z,1.88
2023-03-24T00:38:40.318Z,1.65
2023-03-24T00:41:10.513Z,1.70
2023-03-24T00:46:05.896Z,1.88
2023-03-24T00:48:33.199Z,1.63
2023-03-24T00:51:02.574Z,1.80
2023-03-24T00:53:29.971Z,1.75
2023-03-24T00:55:57.284Z,1.70
2023-03-24T00:58:25.825Z,1.50
2023-03-24T01:00:53.509Z,1.77
2023-03-24T01:03:22.019Z,1.70
2023-03-24T01:05:49.292Z,1.67
2023-03-24T01:08:20.114Z,1.65
2023-03-24T01:10:51.057Z,1.75
2023-03-24T01:13:18.296Z,1.60
2023-03-24T01:15:46.795Z,1.60
2023-03-24T01:18:14.634Z,1.70
2023-03-24T01:20:41.875Z,1.52
2023-03-24T01:23:09.067Z,1.60
2023-03-24T01:25:36.913Z,1.70
2023-03-24T01:28:04.249Z,1.63
2023-03-24T01:30:31.558Z,1.50
2023-03-24T01:33:00.451Z,1.60
2023-03-24T01:35:29.396Z,1.58
2023-03-24T01:37:56.917Z,1.55
2023-03-24T01:40:24.770Z,1.67
2023-03-24T01:42:52.013Z,1.40
2023-03-24T01:45:38.200Z,1.60
2023-03-24T01:48:06.784Z,1.55
2023-03-24T01:50:33.987Z,1.48
2023-03-24T01:53:01.170Z,1.58
2023-03-24T01:55:28.463Z,1.58
2023-03-24T01:57:56.854Z,1.33
2023-03-24T02:00:25.005Z,1.58
2023-03-24T02:02:55.065Z,1.58
2023-03-24T02:07:52.154Z,1.40
2023-03-24T02:10:19.862Z,1.67
2023-03-24T02:12:47.279Z,1.40
2023-03-24T02:15:15.530Z,1.50
2023-03-24T02:17:48.006Z,1.60
2023-03-24T02:20:25.127Z,1.50
2023-03-24T02:23:14.533Z,1.25
2023-03-24T02:26:00.665Z,1.40
2023-03-24T02:28:32.921Z,1.35
2023-03-24T02:31:16.012Z,1.52
2023-03-24T02:33:49.344Z,1.40
2023-03-24T02:36:27.679Z,1.35
2023-03-24T02:39:10.656Z,1.50
2023-03-24T02:41:38.048Z,1.83
2023-03-24T02:44:06.509Z,1.33
2023-03-24T02:46:34.189Z,1.58
2023-03-24T02:49:05.867Z,1.50
2023-03-24T02:51:33.484Z,1.50
2023-03-24T02:54:02.572Z,1.40
2023-03-24T02:56:32.539Z,1.30
2023-03-24T02:59:00.682Z,1.40
2023-03-24T03:01:32.117Z,1.40
2023-03-24T03:03:59.790Z,1.80
2023-03-24T03:06:28.209Z,1.60
2023-03-24T03:08:55.439Z,1.40
2023-03-24T03:11:22.658Z,1.40
2023-03-24T03:13:51.738Z,1.30
2023-03-24T03:16:19.838Z,1.30
2023-03-24T03:18:49.859Z,1.30
2023-03-24T03:21:17.151Z,1.60
2023-03-24T03:23:44.778Z,1.40
2023-03-24T03:26:13.199Z,1.52
2023-03-24T03:28:41.219Z,1.35
2023-03-24T03:31:14.598Z,1.50
2023-03-24T03:33:43.416Z,1.65
2023-03-24T03:36:11.685Z,1.50
2023-03-24T03:38:41.070Z,1.80
2023-03-24T03:41:08.274Z,1.50
2023-03-24T03:43:36.273Z,1.70
2023-03-24T03:46:03.736Z,1.50
2023-03-24T03:48:32.322Z,1.50
2023-03-24T03:51:12.371Z,1.60
2023-03-24T03:53:41.678Z,1.55
2023-03-24T03:56:09.176Z,1.60
2023-03-24T03:58:36.370Z,1.40
2023-03-24T04:01:03.900Z,1.60
2023-03-24T04:03:40.743Z,1.65
2023-03-24T04:06:09.677Z,1.60
2023-03-24T04:08:40.278Z,1.50
2023-03-24T04:11:40.866Z,1.50
2023-03-24T04:14:13.142Z,1.50
2023-03-24T04:16:45.500Z,1.50
2023-03-24T04:19:16.917Z,1.70
2023-03-24T04:21:51.627Z,1.80
2023-03-24T04:24:27.279Z,1.75
2023-03-24T04:26:55.465Z,1.70
2023-03-24T04:29:25.825Z,1.55
2023-03-24T04:31:54.098Z,1.50
2023-03-24T04:34:25.818Z,1.50
2023-03-24T04:36:54.456Z,1.85
2023-03-24T04:39:25.495Z,1.95
2023-03-24T04:41:52.935Z,1.65
2023-03-24T04:44:21.689Z,1.80
2023-03-24T04:46:48.878Z,1.83
2023-03-24T04:49:16.239Z,1.60
2023-03-24T04:51:44.766Z,1.80
2023-03-24T04:54:12.013Z,1.58
2023-03-24T04:56:40.585Z,1.60
2023-03-24T04:59:08.184Z,1.67
2023-03-24T05:01:37.468Z,1.88
2023-03-24T05:04:05.137Z,1.67
2023-03-24T05:06:32.629Z,1.88
2023-03-24T05:09:01.137Z,1.35
2023-03-24T05:11:28.387Z,1.92
2023-03-24T05:13:55.759Z,1.80
2023-03-24T05:16:23.008Z,1.77
2023-03-24T05:18:50.379Z,1.75
2023-03-24T05:21:17.615Z,1.73
2023-03-24T05:23:44.788Z,1.73
2023-03-24T05:26:13.272Z,1.80
2023-03-24T05:28:40.846Z,1.60
2023-03-24T05:31:08.122Z,1.67
2023-03-24T05:33:35.355Z,1.58
2023-03-24T05:36:02.607Z,1.70
2023-03-24T05:38:29.928Z,1.60
2023-03-24T05:40:57.413Z,1.63
2023-03-24T05:43:25.935Z,1.67
2023-03-24T05:45:53.175Z,1.60
2023-03-24T05:48:20.494Z,1.73
2023-03-24T05:50:47.684Z,1.45
2023-03-24T05:53:14.933Z,1.77
2023-03-24T05:55:42.393Z,2.15
2023-03-24T05:58:09.631Z,2.30
2023-03-24T06:00:38.131Z,2.15
2023-03-24T06:03:06.337Z,2.10
2023-03-24T06:05:33.694Z,1.75
2023-03-24T06:08:01.217Z,1.70
2023-03-24T06:10:29.088Z,1.92
2023-03-24T06:12:56.333Z,2.10
2023-03-24T06:15:24.277Z,1.88
2023-03-24T06:17:55.637Z,1.85
2023-03-24T06:20:22.905Z,2.00
2023-03-24T06:22:50.276Z,1.50
2023-03-24T06:25:17.995Z,1.70
2023-03-24T06:27:46.007Z,1.50
2023-03-24T06:30:13.907Z,1.30
2023-03-24T06:32:41.096Z,1.40
2023-03-24T06:35:09.809Z,1.65
2023-03-24T06:37:37.083Z,1.40
2023-03-24T06:40:08.176Z,1.58
2023-03-24T06:42:35.687Z,1.52
2023-03-24T06:47:26.128Z,1.25
2023-03-24T06:49:53.376Z,1.40
2023-03-24T06:52:21.902Z,1.40
2023-03-24T06:54:49.095Z,1.42
2023-03-24T06:57:16.359Z,1.30
2023-03-24T06:59:43.552Z,1.30
2023-03-24T07:02:12.420Z,1.30
2023-03-24T07:04:39.607Z,1.50
2023-03-24T07:09:40.940Z,1.50
2023-03-24T07:12:08.299Z,1.40
2023-03-24T07:14:35.494Z,1.30
2023-03-24T07:17:02.789Z,1.40
2023-03-24T07:19:29.969Z,1.50
2023-03-24T07:21:57.146Z,1.48
2023-03-24T07:24:24.650Z,1.50
2023-03-24T07:26:53.166Z,1.50
2023-03-24T07:29:20.398Z,1.40
2023-03-24T07:31:48.717Z,1.38
2023-03-24T07:34:16.038Z,1.35
2023-03-24T07:36:43.266Z,1.50
2023-03-24T07:39:10.565Z,1.40
2023-03-24T07:41:37.776Z,1.42
2023-03-24T07:44:06.420Z,1.45
2023-03-24T07:46:33.699Z,1.20
2023-03-24T07:49:11.787Z,1.30
2023-03-24T07:51:44.508Z,1.30
2023-03-24T07:54:11.774Z,1.40
2023-03-24T07:56:39.178Z,1.60
2023-03-24T07:59:09.563Z,1.30
2023-03-24T08:01:37.341Z,1.60
2023-03-24T08:04:06.646Z,1.23
2023-03-24T08:06:34.674Z,1.25
2023-03-24T08:09:01.905Z,1.20
2023-03-24T08:11:29.148Z,1.30
2023-03-24T08:13:58.152Z,1.67
2023-03-24T08:16:26.676Z,1.38
2023-03-24T08:18:53.877Z,1.40
2023-03-24T08:21:21.083Z,1.38
2023-03-24T08:23:48.302Z,1.35
2023-03-24T08:26:15.494Z,1.17
2023-03-24T08:28:42.705Z,1.30
2023-03-24T08:31:09.958Z,1.50
2023-03-24T08:33:38.530Z,1.10
2023-03-24T08:36:06.591Z,1.33
2023-03-24T08:38:33.833Z,1.42
2023-03-24T08:41:06.465Z,1.25
2023-03-24T08:43:33.746Z,1.42
2023-03-24T08:46:01.091Z,1.60
2023-03-24T08:48:28.567Z,1.63
2023-03-24T08:50:57.180Z,1.58
2023-03-24T08:53:24.379Z,1.60
2023-03-24T08:55:52.302Z,1.60
2023-03-24T08:58:20.042Z,1.83
2023-03-24T09:00:47.482Z,1.50
2023-03-24T09:03:18.072Z,1.50
2023-03-24T09:05:46.399Z,1.40
2023-03-24T09:08:15.093Z,1.48
2023-03-24T09:10:42.514Z,1.52
2023-03-24T09:13:09.861Z,1.60
2023-03-24T09:15:37.256Z,1.60
2023-03-24T09:18:04.618Z,1.85
2023-03-24T09:20:31.846Z,1.50
2023-03-24T09:22:59.058Z,1.52
2023-03-24T09:25:27.551Z,1.60
2023-03-24T09:27:56.423Z,1.58
2023-03-24T09:30:23.674Z,1.50
2023-03-24T09:32:51.012Z,1.38
2023-03-24T09:35:18.231Z,1.60
2023-03-24T09:37:45.467Z,1.63
2023-03-24T09:40:15.951Z,1.60
2023-03-24T09:42:46.275Z,1.70
2023-03-24T09:45:14.046Z,1.73
2023-03-24T09:47:42.225Z,2.00
2023-03-24T09:50:10.883Z,1.40
2023-03-24T09:52:40.404Z,1.52
2023-03-24T09:55:11.904Z,1.60
2023-03-24T09:57:39.329Z,1.50
2023-03-24T10:00:16.266Z,1.70
2023-03-24T10:02:43.527Z,1.85
2023-03-24T10:05:13.534Z,2.00
2023-03-24T10:07:41.192Z,2.00
2023-03-24T10:10:10.211Z,1.52
2023-03-24T10:12:37.673Z,1.63
2023-03-24T10:15:07.223Z,1.40
2023-03-24T10:17:38.438Z,2.10
2023-03-24T10:20:07.592Z,1.67
2023-03-24T10:22:37.536Z,1.70
2023-03-24T10:25:06.376Z,1.83
2023-03-24T10:27:34.502Z,1.80
2023-03-24T10:30:03.416Z,1.50
2023-03-24T10:32:30.739Z,2.28
2023-03-24T10:35:07.363Z,1.90
2023-03-24T10:37:34.561Z,1.70
2023-03-24T10:40:01.844Z,2.00
2023-03-24T10:42:29.636Z,2.25
2023-03-24T10:44:57.509Z,1.80
2023-03-24T10:47:25.408Z,1.88
2023-03-24T10:49:53.182Z,1.90
2023-03-24T10:52:24.280Z,1.80
2023-03-24T10:54:54.936Z,1.80
2023-03-24T10:57:23.203Z,2.20
2023-03-24T10:59:51.813Z,1.90
2023-03-24T11:02:19.665Z,2.00
2023-03-24T11:04:49.179Z,1.80
2023-03-24T11:07:17.295Z,2.10
2023-03-24T11:09:45.898Z,2.15
2023-03-24T11:12:23.217Z,2.10
2023-03-24T11:14:50.606Z,2.40
2023-03-24T11:17:17.886Z,2.20
2023-03-24T11:19:52.411Z,2.15
2023-03-24T11:22:19.617Z,2.25
2023-03-24T11:24:48.462Z,2.50
2023-03-24T11:27:16.547Z,2.20
2023-03-24T11:29:43.831Z,2.15
2023-03-24T11:32:13.523Z,2.00
2023-03-24T11:34:42.185Z,2.20
2023-03-24T11:37:11.339Z,2.42
2023-03-24T11:39:38.567Z,2.20
2023-03-24T11:42:13.878Z,1.98
2023-03-24T11:44:45.357Z,2.17
2023-03-24T11:47:13.891Z,2.40
2023-03-24T11:49:43.013Z,2.20
2023-03-24T11:52:10.649Z,2.08
2023-03-24T11:54:37.877Z,2.22
2023-03-24T11:57:05.706Z,2.40
2023-03-24T11:59:35.755Z,2.10
2023-03-24T12:02:05.923Z,2.58
2023-03-24T12:07:07.171Z,2.53
2023-03-24T12:09:35.790Z,2.40
2023-03-24T12:12:08.399Z,1.73
2023-03-24T12:14:43.445Z,2.17
2023-03-24T12:17:11.475Z,2.38
2023-03-24T12:19:42.780Z,2.30
2023-03-24T12:22:13.454Z,2.17
2023-03-24T12:24:46.709Z,1.92
2023-03-24T12:27:15.543Z,2.38
2023-03-24T12:29:46.608Z,2.30
2023-03-24T12:32:18.654Z,2.30
2023-03-24T12:34:49.786Z,2.30
2023-03-24T12:37:18.167Z,2.25
2023-03-24T12:39:47.189Z,2.53
2023-03-24T12:42:14.507Z,2.42
2023-03-24T12:44:56.800Z,2.25
2023-03-24T12:47:28.044Z,2.00
2023-03-24T12:49:58.812Z,2.15
2023-03-24T12:52:36.614Z,2.03
2023-03-24T12:55:06.355Z,2.00
2023-03-24T12:57:35.651Z,2.15
2023-03-24T13:00:08.853Z,2.00
2023-03-24T13:02:37.646Z,2.10
2023-03-24T13:05:06.152Z,1.98
2023-03-24T13:07:33.728Z,2.40
2023-03-24T13:10:01.570Z,2.20
2023-03-24T13:12:29.784Z,2.20
2023-03-24T13:14:58.439Z,2.30
2023-03-24T13:17:28.614Z,2.47
2023-03-24T13:22:23.095Z,2.20
2023-03-24T13:24:50.285Z,2.35
2023-03-24T13:27:20.432Z,2.38
2023-03-24T13:32:18.233Z,2.25
2023-03-24T13:34:48.885Z,2.10
2023-03-24T13:37:16.524Z,2.20
2023-03-24T13:39:44.060Z,2.10
2023-03-24T13:42:21.519Z,2.40
2023-03-24T13:44:48.928Z,2.10
2023-03-24T13:47:16.489Z,2.33
2023-03-24T13:49:44.041Z,2.35
2023-03-24T13:52:22.844Z,2.20
2023-03-24T13:54:50.557Z,2.30
2023-03-24T13:57:20.258Z,2.35
2023-03-24T13:59:59.577Z,2.38
2023-03-24T14:02:43.352Z,2.20
2023-03-24T14:05:11.306Z,2.50
2023-03-24T14:07:46.873Z,2.53
2023-03-24T14:10:32.780Z,2.10
2023-03-24T14:13:02.708Z,2.10
2023-03-24T14:15:30.483Z,2.22
2023-03-24T14:17:57.923Z,2.08
2023-03-24T14:20:29.761Z,2.20
2023-03-24T14:22:58.250Z,2.13
2023-03-24T14:25:26.953Z,1.80
2023-03-24T14:27:54.258Z,1.75
2023-03-24T14:30:22.224Z,1.90
2023-03-24T14:32:49.780Z,2.00
2023-03-24T14:35:21.979Z,2.20
2023-03-24T14:37:50.537Z,1.90
2023-03-24T14:40:29.539Z,2.35
2023-03-24T14:42:57.898Z,2.00
2023-03-24T14:45:38.810Z,2.13
2023-03-24T14:48:06.219Z,1.63
2023-03-24T14:50:33.425Z,1.90
2023-03-24T14:53:01.247Z,2.15
2023-03-24T14:55:30.189Z,2.17
2023-03-24T14:57:57.573Z,1.80
2023-03-24T15:00:25.779Z,2.03
2023-03-24T15:02:53.158Z,2.20
2023-03-24T15:05:23.031Z,2.03
2023-03-24T15:08:01.001Z,2.03
2023-03-24T15:10:29.950Z,1.83
2023-03-24T15:12:57.165Z,1.90
2023-03-24T15:15:24.407Z,1.85
2023-03-24T15:17:51.772Z,2.00
2023-03-24T15:20:22.357Z,2.00
2023-03-24T15:22:50.854Z,2.08
2023-03-24T15:25:18.218Z,2.22
2023-03-24T15:27:51.222Z,2.40
2023-03-24T15:30:18.526Z,1.65
2023-03-24T15:32:46.193Z,1.75
2023-03-24T15:35:14.641Z,2.08
2023-03-24T15:37:47.801Z,1.75
2023-03-24T15:40:37.510Z,2.10
2023-03-24T15:43:06.691Z,1.95
2023-03-24T15:45:34.791Z,1.75
2023-03-24T15:48:04.188Z,1.70
2023-03-24T15:50:32.380Z,1.80
2023-03-24T15:53:00.015Z,1.80
2023-03-24T15:55:28.488Z,1.75
2023-03-24T15:57:55.860Z,1.75
2023-03-24T16:00:27.945Z,1.70
2023-03-24T16:02:55.468Z,1.63
2023-03-24T16:05:23.340Z,1.65
2023-03-24T16:07:57.097Z,1.90
2023-03-24T16:10:26.734Z,1.90
2023-03-24T16:12:53.930Z,1.90
2023-03-24T16:15:21.140Z,1.75
2023-03-24T16:17:49.811Z,1.98
2023-03-24T16:20:18.758Z,1.50
2023-03-24T16:22:46.695Z,1.65
2023-03-24T16:25:14.372Z,1.80
2023-03-24T16:27:41.582Z,1.85
2023-03-24T16:30:12.909Z,1.63
2023-03-24T16:32:40.695Z,1.50
2023-03-24T16:35:10.247Z,1.60
2023-03-24T16:37:37.424Z,1.48
2023-03-24T16:40:08.525Z,1.70
2023-03-24T16:42:35.797Z,1.20
2023-03-24T16:45:03.467Z,1.58
2023-03-24T16:47:30.746Z,1.80
2023-03-24T16:49:57.940Z,1.65
2023-03-24T16:52:26.472Z,1.60
2023-03-24T16:54:54.402Z,1.35
2023-03-24T16:57:21.616Z,1.30
2023-03-24T16:59:48.778Z,1.75
2023-03-24T17:02:16.007Z,1.23
2023-03-24T17:04:44.372Z,1.30
2023-03-24T17:07:11.567Z,1.38
2023-03-24T17:09:40.608Z,1.30
2023-03-24T17:12:09.237Z,1.60
2023-03-24T17:14:37.899Z,1.40
2023-03-24T17:17:07.066Z,1.50
2023-03-24T17:19:34.239Z,1.20
2023-03-24T17:22:02.346Z,1.23
2023-03-24T17:24:30.155Z,1.60
2023-03-24T17:26:58.736Z,1.50
2023-03-24T17:29:25.920Z,1.50
2023-03-24T17:31:54.027Z,1.60
2023-03-24T17:34:22.433Z,1.60
2023-03-24T17:36:50.732Z,1.65
2023-03-24T17:39:18.469Z,1.65
2023-03-24T17:41:45.706Z,1.50
2023-03-24T17:44:14.405Z,1.45
2023-03-24T17:46:41.858Z,1.50
2023-03-24T17:49:09.091Z,1.30
2023-03-24T17:51:36.418Z,1.65
2023-03-24T17:54:04.035Z,1.30
2023-03-24T17:56:31.288Z,1.48
2023-03-24T17:58:59.503Z,1.38
2023-03-24T18:01:29.109Z,1.20
2023-03-24T18:03:56.545Z,1.30
2023-03-24T18:06:23.783Z,1.50
2023-03-24T18:08:51.311Z,1.70
2023-03-24T18:11:18.547Z,1.38
2023-03-24T18:13:45.896Z,1.50
2023-03-24T18:16:21.353Z,1.40
2023-03-24T18:18:51.022Z,1.15
2023-03-24T18:21:18.420Z,1.60
2023-03-24T18:23:46.209Z,1.60
2023-03-24T18:26:13.447Z,1.40
2023-03-24T18:28:41.970Z,1.38
2023-03-24T18:31:09.742Z,1.50
2023-03-24T18:33:36.998Z,1.67
2023-03-24T18:36:06.047Z,1.83
2023-03-24T18:38:33.297Z,1.70
2023-03-24T18:41:00.995Z,1.45
2023-03-24T18:43:30.103Z,1.50
2023-03-24T18:45:57.436Z,1.80
2023-03-24T18:48:24.771Z,1.58
2023-03-24T18:50:52.463Z,1.40
2023-03-24T18:53:21.282Z,1.60
2023-03-24T18:55:50.025Z,1.73
2023-03-24T18:58:17.521Z,1.50
2023-03-24T19:00:45.047Z,1.42
2023-03-24T19:03:12.333Z,1.50
2023-03-24T19:05:39.575Z,1.40
2023-03-24T19:08:07.470Z,1.75
2023-03-24T19:10:36.156Z,1.30
2023-03-24T19:13:03.554Z,1.42
2023-03-24T19:15:30.830Z,1.40
2023-03-24T19:17:59.036Z,1.38
2023-03-24T19:20:27.219Z,1.60
2023-03-24T19:22:54.481Z,1.30
2023-03-24T19:25:21.938Z,1.42
2023-03-24T19:27:50.452Z,1.83
2023-03-24T19:30:18.190Z,1.30
2023-03-24T19:32:46.542Z,1.35
2023-03-24T19:35:13.803Z,1.80
2023-03-24T19:37:41.108Z,1.30
2023-03-24T19:40:09.890Z,1.35
2023-03-24T19:42:39.769Z,1.30
2023-03-24T19:45:09.281Z,1.70
2023-03-24T19:47:36.730Z,1.25
2023-03-24T19:50:04.302Z,1.50
2023-03-24T19:52:31.558Z,1.10
2023-03-24T19:54:58.754Z,1.10
2023-03-24T19:57:27.209Z,1.50
2023-03-24T19:59:54.374Z,1.30
2023-03-24T20:02:24.355Z,1.10
2023-03-24T20:04:51.890Z,1.30
2023-03-24T20:07:19.106Z,1.20
2023-03-24T20:09:46.419Z,1.30
2023-03-24T20:12:13.639Z,1.00
2023-03-24T20:14:41.013Z,1.30
2023-03-24T20:17:09.664Z,1.35
2023-03-24T20:19:39.801Z,1.10
2023-03-24T20:22:07.104Z,1.20
2023-03-24T20:24:37.526Z,1.20
2023-03-24T20:27:04.765Z,1.20
2023-03-24T20:29:32.137Z,1.40
2023-03-24T20:31:59.450Z,1.40
2023-03-24T20:34:26.746Z,1.15
2023-03-24T20:36:55.955Z,1.00
2023-03-24T20:39:23.254Z,1.10
2023-03-24T20:41:50.493Z,1.20
2023-03-24T20:44:17.711Z,1.20
2023-03-24T20:46:46.007Z,1.02
2023-03-24T20:49:16.497Z,1.25
2023-03-24T20:51:43.763Z,1.30
2023-03-24T20:54:12.293Z,1.10
2023-03-24T20:56:39.555Z,1.30
2023-03-24T20:59:07.566Z,1.50
2023-03-24T21:01:36.076Z,1.10
2023-03-24T21:04:08.586Z,1.13
2023-03-24T21:06:36.812Z,1.30
2023-03-24T21:09:04.637Z,1.20
2023-03-24T21:11:33.372Z,1.00
2023-03-24T21:14:01.059Z,1.05
2023-03-24T21:16:28.302Z,1.20
2023-03-24T21:18:56.143Z,1.20
2023-03-24T21:21:23.524Z,1.20
2023-03-24T21:23:52.628Z,1.25
2023-03-24T21:26:19.842Z,1.48
2023-03-24T21:28:48.366Z,1.10
2023-03-24T21:31:17.881Z,1.20
2023-03-24T21:33:45.365Z,0.90
2023-03-24T21:36:12.701Z,1.30
2023-03-24T21:38:40.007Z,1.20
2023-03-24T21:41:07.295Z,1.10
2023-03-24T21:43:34.756Z,1.15
2023-03-24T21:46:03.924Z,1.20
2023-03-24T21:48:34.805Z,1.07
2023-03-24T21:51:03.711Z,1.50
2023-03-24T21:53:31.039Z,1.33
2023-03-24T21:56:04.830Z,1.23
2023-03-24T21:58:32.419Z,1.10
2023-03-24T22:00:59.984Z,1.60
2023-03-24T22:03:28.780Z,1.13
2023-03-24T22:05:57.178Z,1.30
2023-03-24T22:08:26.568Z,1.00
2023-03-24T22:10:57.859Z,1.10
2023-03-24T22:13:25.383Z,1.25
2023-03-24T22:15:54.739Z,1.42
2023-03-24T22:18:21.970Z,1.30
2023-03-24T22:20:54.453Z,1.20
2023-03-24T22:23:22.790Z,1.38
2023-03-24T22:25:51.970Z,1.40
2023-03-24T22:28:19.763Z,1.30
2023-03-24T22:30:47.124Z,1.23
2023-03-24T22:33:14.358Z,1.38
2023-03-24T22:35:41.673Z,1.50
2023-03-24T22:38:14.706Z,1.30
2023-03-24T22:40:42.865Z,1.30
2023-03-24T22:43:10.318Z,1.23
2023-03-24T22:45:37.535Z,1.30
2023-03-24T22:48:04.856Z,1.00
2023-03-24T22:50:32.056Z,1.33
2023-03-24T22:52:59.311Z,1.05
2023-03-24T22:55:27.841Z,1.40
2023-03-24T22:57:55.024Z,1.10
2023-03-24T23:00:22.402Z,1.35
2023-03-24T23:02:49.761Z,1.52
2023-03-24T23:05:17.266Z,1.35
2023-03-24T23:07:44.837Z,1.10
2023-03-24T23:10:12.803Z,1.20
2023-03-24T23:12:42.565Z,1.40
2023-03-24T23:15:10.686Z,1.50
2023-03-24T23:17:38.031Z,1.30
2023-03-24T23:20:07.604Z,1.05
2023-03-24T23:22:34.834Z,1.40
2023-03-24T23:25:03.750Z,1.20
2023-03-24T23:27:33.780Z,1.20
2023-03-24T23:30:02.850Z,1.40
2023-03-24T23:32:32.360Z,1.33
2023-03-24T23:35:02.601Z,1.17
2023-03-24T23:40:01.839Z,1.38
2023-03-24T23:42:29.489Z,1.17
2023-03-24T23:44:56.678Z,1.10
2023-03-24T23:47:25.259Z,1.20
2023-03-24T23:49:52.521Z,1.10
2023-03-24T23:52:19.750Z,1.30
2023-03-24T23:54:46.943Z,1.30
2023-03-24T23:57:14.252Z,1.30
2023-03-24T23:59:41.477Z,1.02
